Time;durP1;ratioP1;P1;durP2;ratioP2;P2;SDS_P1;SDS_P2;PMS_P1;PMS_P2;Temp;Humidity;BMP_temperature;BMP_pressure;BME280_temperature;BME280_humidity;BME280_pressure;Samples;Min_cycle;Max_cycle;Signal;HPM_P1;HPM_P2
2022/05/31 00:01:58;;;;;;;2.55;2.35;;;8.60;99.90;;;;;;5049165;28;20045;-76
2022/05/31 00:04:23;;;;;;;3.53;3.22;;;8.60;99.90;;;;;;5052303;28;20048;-76
2022/05/31 00:06:49;;;;;;;5.00;3.10;;;8.50;99.90;;;;;;5052987;28;20055;-76
2022/05/31 00:09:15;;;;;;;2.75;2.60;;;8.50;99.90;;;;;;5053171;28;20040;-77
2022/05/31 00:11:41;;;;;;;2.72;2.53;;;8.40;99.90;;;;;;5054176;28;20405;-77
2022/05/31 00:14:08;;;;;;;4.28;2.83;;;8.40;99.90;;;;;;5054543;28;20098;-77
2022/05/31 00:16:34;;;;;;;4.78;4.35;;;8.40;99.90;;;;;;5053403;28;20036;-77
2022/05/31 00:18:59;;;;;;;5.97;5.35;;;8.30;99.90;;;;;;5047540;28;20060;-77
2022/05/31 00:21:42;;;;;;;5.47;4.90;;;8.30;99.90;;;;;;5045874;28;20049;-77
2022/05/31 00:24:13;;;;;;;6.03;5.53;;;8.30;99.90;;;;;;5046136;28;20049;-77
2022/05/31 00:26:40;;;;;;;5.07;4.68;;;8.30;99.90;;;;;;5046459;28;20056;-77
2022/05/31 00:29:07;;;;;;;5.00;4.60;;;8.30;99.90;;;;;;5046196;28;20049;-76
2022/05/31 00:31:40;;;;;;;5.03;4.53;;;8.30;99.90;;;;;;5047801;28;20048;-77
2022/05/31 00:34:07;;;;;;;5.47;4.97;;;8.30;99.90;;;;;;5047381;28;20817;-77
2022/05/31 00:36:33;;;;;;;5.90;5.30;;;8.30;99.90;;;;;;5046102;28;20077;-77
2022/05/31 00:38:59;;;;;;;5.72;5.20;;;8.30;99.90;;;;;;5050691;28;20122;-75
2022/05/31 00:41:25;;;;;;;5.53;5.03;;;8.30;99.90;;;;;;5046284;28;20109;-76
2022/05/31 00:43:59;;;;;;;5.00;4.60;;;8.30;99.90;;;;;;5046480;28;20391;-77
2022/05/31 00:46:48;;;;;;;6.72;5.85;;;8.30;99.90;;;;;;5061996;28;20048;-77
2022/05/31 00:49:25;;;;;;;8.07;6.15;;;8.30;99.90;;;;;;5046261;28;20048;-77
2022/05/31 00:51:54;;;;;;;6.53;5.93;;;8.30;99.90;;;;;;5048342;28;20464;-77
2022/05/31 00:54:20;;;;;;;;;;;8.30;99.90;;;;;;5047686;28;20460;-75
2022/05/31 00:56:48;;;;;;;9.45;7.60;;;8.40;99.90;;;;;;5057213;28;20614;-76
2022/05/31 00:59:16;;;;;;;;;;;8.30;99.90;;;;;;5055613;28;20049;-76
2022/05/31 01:01:47;;;;;;;8.48;7.60;;;8.40;99.90;;;;;;5046476;28;20294;-76
2022/05/31 01:04:14;;;;;;;9.00;8.15;;;8.40;99.90;;;;;;5050105;28;20124;-76
2022/05/31 01:06:40;;;;;;;9.13;8.23;;;8.40;99.90;;;;;;5046913;28;20103;-76
2022/05/31 01:09:06;;;;;;;10.55;9.48;;;8.40;99.90;;;;;;5046575;28;20053;-76
2022/05/31 01:11:38;;;;;;;12.75;8.80;;;8.40;99.90;;;;;;5053472;28;20544;-76
2022/05/31 01:14:04;;;;;;;9.63;8.73;;;8.40;99.90;;;;;;5052378;28;20516;-76
2022/05/31 01:16:30;;;;;;;10.98;9.70;;;8.50;99.90;;;;;;5056202;28;20049;-76
2022/05/31 01:18:56;;;;;;;11.23;8.80;;;8.50;99.90;;;;;;5045786;28;20059;-76
2022/05/31 01:21:21;;;;;;;13.27;11.88;;;8.50;99.90;;;;;;5046887;28;20112;-76
2022/05/31 01:23:57;;;;;;;12.52;11.13;;;8.50;99.90;;;;;;5051296;28;20026;-76
2022/05/31 01:26:35;;;;;;;11.07;9.98;;;8.50;99.90;;;;;;5053842;28;20640;-76
2022/05/31 01:29:17;;;;;;;;;;;8.50;99.90;;;;;;5047410;28;20044;-76
2022/05/31 01:32:13;;;;;;;11.02;10.02;;;8.50;99.90;;;;;;5049502;28;19989;-77
2022/05/31 01:35:01;;;;;;;12.45;11.07;;;8.50;99.90;;;;;;5048645;28;20060;-77
2022/05/31 01:37:50;;;;;;;16.17;11.25;;;8.50;99.90;;;;;;5061833;28;20063;-77
2022/05/31 01:40:27;;;;;;;11.70;10.65;;;8.50;99.90;;;;;;5059767;28;20052;-77
2022/05/31 01:42:52;;;;;;;12.85;11.15;;;8.60;99.90;;;;;;5053801;28;20513;-77
2022/05/31 01:45:26;;;;;;;11.95;10.70;;;8.60;99.90;;;;;;5062362;28;20049;-78
2022/05/31 01:47:56;;;;;;;12.45;11.18;;;8.60;99.90;;;;;;5061016;28;20063;-77
2022/05/31 01:50:22;;;;;;;13.13;11.70;;;8.60;99.90;;;;;;5053746;28;20049;-77
2022/05/31 01:52:50;;;;;;;16.50;12.55;;;8.60;99.90;;;;;;5054767;28;20052;-77
2022/05/31 01:55:16;;;;;;;15.43;13.80;;;8.60;99.90;;;;;;5051344;28;20461;-77
2022/05/31 01:57:52;;;;;;;12.88;11.60;;;8.60;99.90;;;;;;5057138;28;20908;-77
2022/05/31 02:00:19;;;;;;;12.98;11.35;;;8.60;99.90;;;;;;5049668;28;20053;-77
2022/05/31 02:02:49;;;;;;;15.40;13.95;;;8.60;99.90;;;;;;5054299;28;20119;-76
2022/05/31 02:05:16;;;;;;;12.00;10.52;;;8.60;99.90;;;;;;5059638;28;20048;-77
2022/05/31 02:07:42;;;;;;;12.18;10.88;;;8.60;99.90;;;;;;5054433;28;20110;-76
2022/05/31 02:10:08;;;;;;;12.35;11.05;;;8.70;99.90;;;;;;5055151;28;20040;-76
2022/05/31 02:12:34;;;;;;;14.55;12.80;;;8.70;99.90;;;;;;5068425;28;20056;-76
2022/05/31 02:15:00;;;;;;;15.40;12.07;;;8.70;99.90;;;;;;5055051;28;20815;-76
2022/05/31 02:17:25;;;;;;;14.15;12.30;;;8.70;99.90;;;;;;5057423;28;20049;-75
2022/05/31 02:19:51;;;;;;;13.13;11.77;;;8.70;99.90;;;;;;5067704;28;20132;-75
2022/05/31 02:22:22;;;;;;;13.25;11.95;;;8.70;99.90;;;;;;5034510;28;20079;-75
2022/05/31 02:24:48;;;;;;;14.55;13.15;;;8.70;99.90;;;;;;5055177;28;20048;-76
2022/05/31 02:27:14;;;;;;;15.93;13.65;;;8.70;99.90;;;;;;5052353;28;20072;-76
2022/05/31 02:29:41;;;;;;;15.32;12.68;;;8.70;99.90;;;;;;5051519;28;20052;-76
2022/05/31 02:32:09;;;;;;;12.13;10.93;;;8.70;99.90;;;;;;5051978;28;20493;-75
2022/05/31 02:34:40;;;;;;;13.10;11.43;;;8.70;99.90;;;;;;5049138;28;20049;-76
2022/05/31 02:37:06;;;;;;;11.90;10.73;;;8.70;99.90;;;;;;5057572;28;20105;-76
2022/05/31 02:39:34;;;;;;;12.98;11.68;;;8.70;99.90;;;;;;5063683;28;20041;-76
2022/05/31 02:42:02;;;;;;;14.00;11.68;;;8.70;99.90;;;;;;5056283;28;20037;-76
2022/05/31 02:44:28;;;;;;;12.55;11.32;;;8.70;99.90;;;;;;5049609;28;20106;-77
2022/05/31 02:46:54;;;;;;;12.00;10.50;;;8.70;99.90;;;;;;5049094;28;20041;-77
2022/05/31 02:49:19;;;;;;;11.02;8.98;;;8.70;99.90;;;;;;5064509;28;20049;-77
2022/05/31 02:51:46;;;;;;;10.77;9.68;;;8.70;99.90;;;;;;5058603;28;20052;-77
2022/05/31 02:54:14;;;;;;;15.25;10.45;;;8.70;99.90;;;;;;5053364;28;20494;-77
2022/05/31 02:56:40;;;;;;;14.25;9.23;;;8.70;99.90;;;;;;5049399;28;20122;-77
2022/05/31 02:59:06;;;;;;;10.18;9.18;;;8.70;99.90;;;;;;5050500;28;20033;-77
2022/05/31 03:01:35;;;;;;;8.73;7.93;;;8.70;99.90;;;;;;5061854;28;20070;-77
2022/05/31 03:04:01;;;;;;;12.55;10.55;;;8.70;99.90;;;;;;5062890;28;20140;-78
2022/05/31 03:06:27;;;;;;;11.40;9.18;;;8.70;99.90;;;;;;5059517;28;20127;-78
2022/05/31 03:08:52;;;;;;;11.57;10.45;;;8.70;99.90;;;;;;5063546;28;20094;-78
2022/05/31 03:11:41;;;;;;;13.10;10.18;;;8.80;99.90;;;;;;5055788;28;20409;-78
2022/05/31 03:14:17;;;;;;;10.85;9.60;;;8.80;99.90;;;;;;5053957;28;20128;-78
2022/05/31 03:16:46;;;;;;;10.52;9.48;;;8.80;99.90;;;;;;5052536;28;20048;-78
2022/05/31 03:19:19;;;;;;;13.25;10.55;;;8.80;99.90;;;;;;5054705;28;20055;-78
2022/05/31 03:21:52;;;;;;;13.05;10.77;;;8.80;99.90;;;;;;5047990;28;20123;-79
2022/05/31 03:24:23;;;;;;;12.93;9.18;;;8.80;99.90;;;;;;5056267;28;20094;-81
2022/05/31 03:26:51;;;;;;;11.52;8.60;;;8.80;99.90;;;;;;5049823;28;20727;-81
2022/05/31 03:29:17;;;;;;;9.40;8.38;;;8.70;99.90;;;;;;5060546;28;20060;-84
2022/05/31 03:31:43;;;;;;;9.98;7.70;;;8.70;99.90;;;;;;5053750;28;20040;-83
2022/05/31 03:34:08;;;;;;;9.70;8.32;;;8.70;99.90;;;;;;5056164;28;20301;-83
2022/05/31 03:36:34;;;;;;;9.15;7.38;;;8.70;99.90;;;;;;5064570;28;20414;-82
2022/05/31 03:39:01;;;;;;;9.20;8.25;;;8.60;99.90;;;;;;5047055;28;20075;-82
2022/05/31 03:41:27;;;;;;;17.20;9.93;;;8.70;99.90;;;;;;5050325;28;20418;-82
2022/05/31 03:43:52;;;;;;;11.45;9.85;;;8.60;99.90;;;;;;5050228;28;20045;-79
2022/05/31 03:46:18;;;;;;;16.10;12.75;;;8.60;99.90;;;;;;5048062;28;20116;-83
2022/05/31 03:48:44;;;;;;;12.90;11.73;;;8.70;99.90;;;;;;5049965;28;20481;-81
2022/05/31 03:51:11;;;;;;;13.23;11.88;;;8.70;99.90;;;;;;5056061;28;20064;-81
2022/05/31 03:53:38;;;;;;;23.13;13.33;;;8.70;99.90;;;;;;5066135;28;20045;-81
2022/05/31 03:56:10;;;;;;;19.48;12.13;;;8.70;99.90;;;;;;5064874;28;20044;-80
2022/05/31 03:58:36;;;;;;;14.68;11.90;;;8.70;99.90;;;;;;5057317;28;20033;-81
2022/05/31 04:01:02;;;;;;;12.02;10.82;;;8.70;99.90;;;;;;5058867;28;20131;-80
2022/05/31 04:03:28;;;;;;;12.73;11.50;;;8.80;99.90;;;;;;5055423;28;20501;-75
2022/05/31 04:05:54;;;;;;;14.05;12.65;;;8.70;99.90;;;;;;5055934;28;20037;-77
2022/05/31 04:08:20;;;;;;;13.90;12.48;;;8.70;99.90;;;;;;5056202;28;20052;-76
2022/05/31 04:10:46;;;;;;;16.55;12.07;;;8.80;99.90;;;;;;5058090;28;20060;-77
2022/05/31 04:13:14;;;;;;;18.23;12.25;;;8.70;99.90;;;;;;5061492;28;20110;-76
2022/05/31 04:15:40;;;;;;;15.32;11.68;;;8.80;99.90;;;;;;5046319;28;20107;-76
2022/05/31 04:18:06;;;;;;;13.18;11.00;;;8.80;99.90;;;;;;5051487;28;20064;-76
2022/05/31 04:20:32;;;;;;;12.68;11.38;;;8.80;99.90;;;;;;5049810;28;20155;-76
2022/05/31 04:25:44;;;;;;;11.13;10.05;;;8.90;99.90;;;;;;5055458;28;20044;-76
2022/05/31 04:28:10;;;;;;;13.38;12.07;;;8.90;99.90;;;;;;5061506;28;20052;-75
2022/05/31 04:30:37;;;;;;;14.40;12.50;;;8.90;99.90;;;;;;5058824;28;20049;-75
2022/05/31 04:33:03;;;;;;;15.95;12.50;;;8.90;99.90;;;;;;5054468;28;20072;-75
2022/05/31 04:35:29;;;;;;;16.17;13.23;;;8.90;99.90;;;;;;5063332;28;20045;-75
2022/05/31 04:37:55;;;;;;;11.93;10.82;;;8.90;99.90;;;;;;5067662;28;20044;-74
2022/05/31 04:40:20;;;;;;;13.75;12.48;;;8.90;99.90;;;;;;5063721;28;20044;-74
2022/05/31 04:42:46;;;;;;;14.32;12.82;;;8.90;99.90;;;;;;5047583;28;20524;-75
2022/05/31 04:45:12;;;;;;;15.05;13.27;;;9.00;99.90;;;;;;5046843;28;20076;-74
2022/05/31 04:47:38;;;;;;;14.38;12.77;;;9.00;99.90;;;;;;5053219;28;20083;-74
2022/05/31 04:50:04;;;;;;;16.25;14.45;;;9.10;99.90;;;;;;5054565;28;20064;-75
2022/05/31 04:52:30;;;;;;;15.32;13.73;;;9.10;99.90;;;;;;5057297;28;20080;-75
2022/05/31 04:54:56;;;;;;;17.65;14.70;;;9.20;99.90;;;;;;5049762;28;20721;-75
2022/05/31 04:57:21;;;;;;;28.83;16.95;;;9.20;99.90;;;;;;5055183;28;20064;-74
2022/05/31 04:59:47;;;;;;;20.98;18.67;;;9.20;99.90;;;;;;5056626;28;20046;-74
2022/05/31 05:02:12;;;;;;;21.10;18.98;;;9.20;99.90;;;;;;5047568;28;20049;-75
2022/05/31 05:04:38;;;;;;;20.23;18.10;;;9.20;99.90;;;;;;5046373;28;20133;-75
2022/05/31 05:07:04;;;;;;;25.05;18.52;;;9.30;99.90;;;;;;5050051;28;20045;-75
2022/05/31 05:09:30;;;;;;;23.38;20.13;;;9.30;99.90;;;;;;5042479;28;20479;-77
2022/05/31 05:11:55;;;;;;;20.52;18.33;;;9.30;99.90;;;;;;5049977;28;20095;-75
2022/05/31 05:14:22;;;;;;;22.50;18.30;;;9.30;99.90;;;;;;5049404;28;20122;-75
2022/05/31 05:16:48;;;;;;;25.58;19.35;;;9.30;99.90;;;;;;5050314;28;20120;-74
2022/05/31 05:19:14;;;;;;;24.08;19.02;;;9.30;99.90;;;;;;5053355;28;20075;-75
2022/05/31 05:21:40;;;;;;;21.88;19.17;;;9.40;99.90;;;;;;5059884;28;20044;-75
2022/05/31 05:24:06;;;;;;;32.03;20.15;;;9.40;99.90;;;;;;5065984;28;20040;-75
2022/05/31 05:26:32;;;;;;;24.25;20.10;;;9.40;99.90;;;;;;5062690;28;20052;-76
2022/05/31 05:31:42;;;;;;;21.35;19.05;;;9.50;99.90;;;;;;5059950;28;20126;-76
2022/05/31 05:34:08;;;;;;;23.20;20.25;;;9.50;99.90;;;;;;5061223;28;20047;-76
2022/05/31 05:36:34;;;;;;;22.88;20.30;;;9.50;99.90;;;;;;5061093;28;20056;-76
2022/05/31 05:39:00;;;;;;;24.30;20.65;;;9.50;99.90;;;;;;5056437;28;20099;-76
2022/05/31 05:41:29;;;;;;;22.02;19.25;;;9.60;99.90;;;;;;5061088;28;20045;-76
2022/05/31 05:43:54;;;;;;;21.80;18.52;;;9.60;99.90;;;;;;5064131;28;20051;-76
2022/05/31 05:46:28;;;;;;;23.42;18.95;;;9.70;99.90;;;;;;5064366;28;20041;-77
2022/05/31 05:48:55;;;;;;;20.52;18.42;;;9.80;99.90;;;;;;5039252;28;20052;-76
2022/05/31 05:51:22;;;;;;;21.73;18.20;;;9.80;99.90;;;;;;5068935;28;20053;-77
2022/05/31 05:53:49;;;;;;;22.55;17.80;;;9.90;99.90;;;;;;5065970;28;20120;-76
2022/05/31 05:56:16;;;;;;;22.80;18.23;;;10.00;99.90;;;;;;5057099;28;20072;-77
2022/05/31 05:58:43;;;;;;;17.85;16.15;;;10.00;99.90;;;;;;5069517;28;20036;-76
2022/05/31 06:01:31;;;;;;;20.60;17.77;;;10.00;99.90;;;;;;5061910;28;20113;-76
2022/05/31 06:04:14;;;;;;;19.35;17.08;;;10.10;99.90;;;;;;5069157;28;20040;-76
2022/05/31 06:06:42;;;;;;;25.20;18.52;;;10.10;99.90;;;;;;5062072;28;20112;-76
2022/05/31 06:09:18;;;;;;;21.58;17.40;;;10.10;99.90;;;;;;5056470;28;20057;-76
2022/05/31 06:12:00;;;;;;;21.25;19.00;;;10.10;99.90;;;;;;5055873;28;20838;-76
2022/05/31 06:14:31;;;;;;;22.90;16.80;;;10.10;99.90;;;;;;5058344;28;20047;-76
2022/05/31 06:17:00;;;;;;;20.95;18.15;;;10.20;99.90;;;;;;5055801;28;20210;-76
2022/05/31 06:19:31;;;;;;;19.73;17.63;;;10.20;99.90;;;;;;5064063;28;20386;-77
2022/05/31 06:21:58;;;;;;;20.63;18.67;;;10.20;99.90;;;;;;5063452;28;20040;-77
2022/05/31 06:24:27;;;;;;;21.45;18.45;;;10.30;99.90;;;;;;5064354;28;20147;-76
2022/05/31 06:26:52;;;;;;;22.30;19.95;;;10.30;99.90;;;;;;5063878;28;20053;-77
2022/05/31 06:29:18;;;;;;;19.50;17.42;;;10.40;99.90;;;;;;5060697;28;20543;-76
2022/05/31 06:31:44;;;;;;;20.02;17.05;;;10.40;99.90;;;;;;5070278;28;20044;-75
2022/05/31 06:34:10;;;;;;;20.35;17.35;;;10.40;99.90;;;;;;5068421;28;20040;-75
2022/05/31 06:36:35;;;;;;;18.50;16.35;;;10.50;99.90;;;;;;5065425;28;20048;-76
2022/05/31 06:39:01;;;;;;;23.60;16.90;;;10.60;99.90;;;;;;5054530;28;20045;-76
2022/05/31 06:41:27;;;;;;;15.25;13.75;;;10.70;99.90;;;;;;5062549;28;20521;-76
2022/05/31 06:43:52;;;;;;;19.92;15.85;;;10.70;99.90;;;;;;5059191;28;20036;-76
2022/05/31 06:46:19;;;;;;;18.20;15.00;;;10.80;99.90;;;;;;5061386;28;20114;-76
2022/05/31 06:48:45;;;;;;;17.92;16.23;;;10.90;99.90;;;;;;5053382;28;20055;-76
2022/05/31 06:51:13;;;;;;;17.63;15.70;;;11.00;99.90;;;;;;5056338;28;20473;-76
2022/05/31 06:58:52;;;;;;;25.55;15.52;;;11.30;99.90;;;;;;5065504;28;20047;-76
2022/05/31 07:01:19;;;;;;;18.13;15.75;;;11.40;99.90;;;;;;5058185;28;20061;-76
2022/05/31 07:03:45;;;;;;;16.77;13.93;;;11.50;99.90;;;;;;5054830;28;20075;-78
2022/05/31 07:06:10;;;;;;;19.55;14.77;;;11.70;99.90;;;;;;5059966;28;20053;-78
2022/05/31 07:08:36;;;;;;;17.95;14.82;;;11.80;99.90;;;;;;5063162;28;20036;-77
2022/05/31 07:11:02;;;;;;;15.90;13.20;;;12.00;99.90;;;;;;5059601;28;20048;-77
2022/05/31 07:13:28;;;;;;;14.65;12.57;;;12.00;99.90;;;;;;5059250;28;20047;-77
2022/05/31 07:15:53;;;;;;;14.90;13.05;;;12.20;99.90;;;;;;5065265;28;20555;-78
2022/05/31 07:18:19;;;;;;;16.05;12.35;;;12.50;99.90;;;;;;5065626;28;20058;-77
2022/05/31 07:20:45;;;;;;;12.98;11.77;;;12.80;99.90;;;;;;5060964;28;20045;-77
2022/05/31 07:23:11;;;;;;;16.77;12.25;;;13.10;99.90;;;;;;5062515;28;20036;-79
2022/05/31 07:25:37;;;;;;;12.65;11.43;;;13.30;99.90;;;;;;5060649;28;20533;-78
2022/05/31 07:28:03;;;;;;;13.93;12.25;;;13.60;99.90;;;;;;5058083;28;20037;-78
2022/05/31 07:30:29;;;;;;;12.55;11.25;;;13.90;99.90;;;;;;5060954;28;20056;-79
2022/05/31 07:32:54;;;;;;;15.48;10.90;;;14.20;99.90;;;;;;5063916;28;20722;-80
2022/05/31 07:35:20;;;;;;;12.35;10.40;;;14.40;99.90;;;;;;5041272;28;20040;-79
2022/05/31 07:37:46;;;;;;;12.55;10.35;;;14.70;99.90;;;;;;5065705;28;20052;-81
2022/05/31 07:40:12;;;;;;;17.63;9.95;;;14.90;99.90;;;;;;5058529;28;20067;-81
2022/05/31 07:42:46;;;;;;;13.65;9.40;;;15.20;99.90;;;;;;5048174;28;21483;-80
2022/05/31 07:45:35;;;;;;;13.80;9.13;;;15.40;99.90;;;;;;5068768;28;20132;-81
2022/05/31 07:48:02;;;;;;;14.77;10.10;;;15.60;99.90;;;;;;5062092;28;20485;-81
2022/05/31 07:50:28;;;;;;;9.32;8.45;;;15.60;99.90;;;;;;5067978;28;20517;-81
2022/05/31 07:52:53;;;;;;;18.63;9.60;;;15.50;99.90;;;;;;5070911;28;20141;-80
2022/05/31 07:55:19;;;;;;;10.93;9.15;;;15.60;99.90;;;;;;5074199;28;20051;-81
2022/05/31 08:00:30;;;;;;;24.08;9.82;;;16.00;99.90;;;;;;5073608;28;20079;-82
2022/05/31 08:02:56;;;;;;;11.63;8.82;;;16.20;99.90;;;;;;5073216;28;20122;-82
2022/05/31 08:05:22;;;;;;;10.50;7.80;;;16.50;99.90;;;;;;5074561;28;20054;-81
2022/05/31 08:07:49;;;;;;;10.40;8.40;;;16.70;99.90;;;;;;5072446;28;20055;-81
2022/05/31 08:10:17;;;;;;;11.70;7.93;;;16.90;99.90;;;;;;5073201;28;20048;-82
2022/05/31 08:12:43;;;;;;;7.57;6.72;;;17.00;99.90;;;;;;5071815;28;20072;-81
2022/05/31 08:15:10;;;;;;;9.82;7.70;;;17.10;99.90;;;;;;5075139;28;20048;-82
2022/05/31 08:17:36;;;;;;;7.57;6.05;;;17.30;99.90;;;;;;5072980;28;20070;-83
2022/05/31 08:20:07;;;;;;;12.40;7.05;;;17.30;99.90;;;;;;5072527;28;20044;-82
2022/05/31 08:22:33;;;;;;;8.63;6.35;;;17.30;99.90;;;;;;5075570;28;20087;-82
2022/05/31 08:24:59;;;;;;;6.97;6.28;;;17.40;99.90;;;;;;5074261;28;20129;-82
2022/05/31 08:27:25;;;;;;;11.95;7.68;;;17.50;99.90;;;;;;5074721;28;20071;-82
2022/05/31 08:29:51;;;;;;;8.90;6.68;;;17.60;99.90;;;;;;5072550;28;20503;-81
2022/05/31 08:32:16;;;;;;;11.73;6.75;;;17.60;99.90;;;;;;5073237;28;20140;-81
2022/05/31 08:34:42;;;;;;;10.23;7.55;;;17.40;99.90;;;;;;5066411;28;20494;-82
2022/05/31 08:37:09;;;;;;;8.93;6.28;;;17.60;99.90;;;;;;5050843;28;20044;-82
2022/05/31 08:39:34;;;;;;;13.75;5.88;;;17.80;99.90;;;;;;5064253;28;20052;-82
2022/05/31 08:42:18;;;;;;;10.88;6.60;;;18.00;97.50;;;;;;5051254;28;20049;-81
2022/05/31 08:45:00;;;;;;;6.45;5.13;;;18.00;84.20;;;;;;5065738;28;20052;-82
2022/05/31 08:47:46;;;;;;;15.00;6.25;;;18.20;92.80;;;;;;5059661;28;20047;-82
2022/05/31 08:56:56;;;;;;;4.78;3.80;;;18.30;83.70;;;;;;5050186;28;20081;-82
2022/05/31 08:56:56;;;;;;;11.55;5.65;;;18.30;65.60;;;;;;4962854;28;20057;-82
2022/05/31 08:59:52;;;;;;;5.70;5.10;;;18.50;71.50;;;;;;4963333;28;20104;-83
2022/05/31 09:02:34;;;;;;;13.10;6.35;;;18.70;68.10;;;;;;5062139;28;20045;-81
2022/05/31 09:05:13;;;;;;;8.60;4.90;;;18.50;71.80;;;;;;5051567;28;20072;-83
2022/05/31 09:07:58;;;;;;;9.45;5.43;;;18.60;68.80;;;;;;5046000;28;20049;-84
2022/05/31 09:10:27;;;;;;;11.57;6.43;;;18.60;66.40;;;;;;5046558;28;20045;-82
2022/05/31 09:13:30;;;;;;;12.10;4.65;;;18.60;68.80;;;;;;5057429;28;20045;-83
2022/05/31 09:16:09;;;;;;;12.05;4.88;;;18.70;63.90;;;;;;5066262;28;20052;-81
2022/05/31 09:18:53;;;;;;;9.73;6.22;;;18.50;66.60;;;;;;5044237;28;20044;-80
2022/05/31 09:21:40;;;;;;;14.30;9.45;;;18.50;64.40;;;;;;5056176;28;20041;-81
2022/05/31 09:24:12;;;;;;;12.82;10.07;;;18.30;63.70;;;;;;5058845;28;20068;-80
2022/05/31 09:27:03;;;;;;;14.10;7.03;;;18.00;64.10;;;;;;5061226;28;20401;-80
2022/05/31 09:29:47;;;;;;;14.88;9.70;;;18.00;63.50;;;;;;5057277;28;20049;-82
2022/05/31 09:32:50;;;;;;;17.25;10.52;;;18.20;62.40;;;;;;5057512;28;20437;-80
2022/05/31 09:35:37;;;;;;;28.60;11.02;;;18.00;58.80;;;;;;5046676;28;20612;-78
2022/05/31 09:38:07;;;;;;;11.20;9.38;;;17.80;63.60;;;;;;5055299;28;20045;-80
2022/05/31 09:41:06;;;;;;;13.57;8.75;;;17.70;65.60;;;;;;5052908;28;20052;-77
2022/05/31 09:43:49;;;;;;;9.98;7.72;;;17.70;64.00;;;;;;5050109;28;20049;-78
2022/05/31 09:46:21;;;;;;;10.70;8.43;;;17.50;64.00;;;;;;5051414;28;20409;-79
2022/05/31 09:48:50;;;;;;;10.90;6.78;;;17.40;65.40;;;;;;5054391;28;20044;-79
2022/05/31 09:51:42;;;;;;;13.23;7.22;;;17.40;65.40;;;;;;5064793;28;20060;-80
2022/05/31 09:57:06;;;;;;;8.00;6.78;;;17.50;68.00;;;;;;5059509;28;20056;-79
2022/05/31 09:59:40;;;;;;;10.20;6.80;;;17.50;67.90;;;;;;5048745;28;20497;-79
2022/05/31 10:02:29;;;;;;;10.82;7.82;;;17.50;67.80;;;;;;5051995;28;20119;-77
2022/05/31 10:05:27;;;;;;;11.95;6.90;;;17.50;67.90;;;;;;5056130;28;20056;-77
2022/05/31 10:07:54;;;;;;;9.93;7.45;;;17.40;66.50;;;;;;5011879;28;20060;-77
2022/05/31 10:10:33;;;;;;;8.05;6.97;;;17.30;67.90;;;;;;5053036;28;20090;-78
2022/05/31 10:13:09;;;;;;;10.70;7.20;;;17.30;71.20;;;;;;5068022;28;20049;-78
2022/05/31 10:15:43;;;;;;;20.58;8.27;;;17.10;69.60;;;;;;5065948;28;20052;-78
2022/05/31 10:18:13;;;;;;;10.00;8.23;;;17.00;69.70;;;;;;5050437;28;20072;-74
2022/05/31 10:20:53;;;;;;;9.88;6.47;;;17.00;69.30;;;;;;5069130;28;20076;-78
2022/05/31 10:23:22;;;;;;;11.95;8.13;;;17.10;68.90;;;;;;5066482;28;20048;-76
2022/05/31 10:25:53;;;;;;;22.83;7.15;;;17.10;67.50;;;;;;5059413;28;20063;-77
2022/05/31 10:28:42;;;;;;;15.13;7.60;;;17.10;66.60;;;;;;5067433;28;20048;-77
2022/05/31 10:31:40;;;;;;;7.85;6.15;;;17.10;63.20;;;;;;5059249;28;20529;-77
2022/05/31 10:34:30;;;;;;;7.00;6.03;;;17.10;64.80;;;;;;5054227;28;20052;-76
2022/05/31 10:36:58;;;;;;;7.22;5.60;;;17.10;65.90;;;;;;5070500;28;20489;-77
2022/05/31 10:39:39;;;;;;;8.40;5.78;;;17.20;64.60;;;;;;5060573;28;20525;-76
2022/05/31 10:42:11;;;;;;;12.30;7.93;;;17.40;61.70;;;;;;5066469;28;20132;-77
2022/05/31 10:44:51;;;;;;;7.90;7.05;;;17.50;64.50;;;;;;5069174;28;20048;-77
2022/05/31 10:47:20;;;;;;;14.73;7.80;;;17.70;63.60;;;;;;5059281;28;20044;-76
2022/05/31 10:49:47;;;;;;;9.32;7.70;;;17.70;63.10;;;;;;5060925;28;20045;-75
2022/05/31 10:52:41;;;;;;;13.18;7.22;;;17.80;62.00;;;;;;5064754;28;20048;-76
2022/05/31 10:55:19;;;;;;;9.32;6.55;;;17.90;62.80;;;;;;5053169;28;20586;-76
2022/05/31 10:57:48;;;;;;;;;;;17.90;61.40;;;;;;5056566;28;20040;-74
2022/05/31 11:00:29;;;;;;;9.57;7.40;;;17.70;62.20;;;;;;5058968;28;19927;-74
2022/05/31 11:03:28;;;;;;;10.43;7.45;;;17.60;63.10;;;;;;5065296;28;20127;-73
2022/05/31 11:06:28;;;;;;;12.20;8.50;;;17.70;63.20;;;;;;5057306;28;20076;-75
2022/05/31 11:12:24;;;;;;;15.18;7.88;;;17.90;57.30;;;;;;5021805;28;20106;-77
2022/05/31 11:15:08;;;;;;;18.33;7.95;;;17.90;59.90;;;;;;5056521;28;20053;-69
2022/05/31 11:17:59;;;;;;;14.73;8.05;;;18.20;59.00;;;;;;5066233;28;20059;-70
2022/05/31 11:20:44;;;;;;;8.32;7.45;;;18.40;58.60;;;;;;5054536;28;20588;-70
2022/05/31 11:24:00;;;;;;;12.20;7.80;;;18.50;60.00;;;;;;5063525;28;20044;-70
2022/05/31 11:26:59;;;;;;;17.35;9.35;;;18.50;61.50;;;;;;5000791;28;20442;-71
2022/05/31 11:29:37;;;;;;;8.07;7.28;;;18.30;57.10;;;;;;5060287;28;20059;-70
2022/05/31 11:32:30;;;;;;;11.60;8.40;;;18.20;60.30;;;;;;5061836;28;20173;-70
2022/05/31 11:35:35;;;;;;;10.02;8.38;;;18.10;61.40;;;;;;5068132;28;20052;-70
2022/05/31 11:38:15;;;;;;;13.93;8.75;;;17.90;62.30;;;;;;5066491;28;20859;-70
2022/05/31 11:40:50;;;;;;;9.65;7.45;;;17.80;60.90;;;;;;5056836;28;20044;-70
2022/05/31 11:43:30;;;;;;;9.00;7.22;;;17.80;61.50;;;;;;5067739;28;20048;-70
2022/05/31 11:46:22;;;;;;;14.68;8.07;;;17.90;59.20;;;;;;5051501;28;20087;-70
2022/05/31 11:49:28;;;;;;;15.45;7.85;;;17.90;59.60;;;;;;5065456;28;20041;-70
2022/05/31 11:52:16;;;;;;;9.15;8.20;;;18.00;59.80;;;;;;4989385;28;20049;-70
2022/05/31 11:57:57;;;;;;;10.98;7.03;;;18.00;58.10;;;;;;5058877;28;20517;-70
2022/05/31 12:00:28;;;;;;;13.05;8.93;;;18.10;57.80;;;;;;5050042;28;20072;-70
2022/05/31 12:03:07;;;;;;;11.73;9.13;;;18.10;58.90;;;;;;5067074;28;20456;-70
2022/05/31 12:05:40;;;;;;;9.85;8.52;;;18.10;57.80;;;;;;5065682;28;20086;-70
2022/05/31 12:08:34;;;;;;;11.55;8.88;;;18.10;56.80;;;;;;5068048;28;20044;-70
2022/05/31 12:11:08;;;;;;;10.48;8.43;;;18.20;56.00;;;;;;5058244;28;20052;-71
2022/05/31 12:13:37;;;;;;;9.95;8.15;;;18.20;57.20;;;;;;5076253;28;20044;-70
2022/05/31 12:16:04;;;;;;;10.32;9.15;;;18.10;57.50;;;;;;5068432;28;20051;-71
2022/05/31 12:18:43;;;;;;;10.48;8.88;;;18.10;57.80;;;;;;5066486;28;20048;-70
2022/05/31 12:21:33;;;;;;;16.10;9.18;;;18.00;58.10;;;;;;5065515;28;20493;-70
2022/05/31 12:24:14;;;;;;;8.85;8.00;;;18.10;59.40;;;;;;5063116;28;20044;-70
2022/05/31 12:26:51;;;;;;;10.93;8.65;;;18.00;59.50;;;;;;5067556;28;20052;-71
2022/05/31 12:29:32;;;;;;;15.77;9.20;;;18.10;55.60;;;;;;5068013;28;20076;-71
2022/05/31 12:32:29;;;;;;;13.07;8.20;;;18.10;52.80;;;;;;5064252;28;20072;-71
2022/05/31 12:34:57;;;;;;;13.23;8.52;;;18.10;53.90;;;;;;5061994;28;20143;-71
2022/05/31 12:37:23;;;;;;;10.52;8.15;;;18.10;55.90;;;;;;5052232;28;20052;-71
2022/05/31 12:39:50;;;;;;;11.57;7.80;;;18.00;55.60;;;;;;5053964;28;20106;-71
2022/05/31 12:42:25;;;;;;;8.07;7.15;;;18.00;56.00;;;;;;5066243;28;20458;-71
2022/05/31 12:45:08;;;;;;;11.82;7.90;;;18.10;54.40;;;;;;5067505;28;20053;-71
2022/05/31 12:47:34;;;;;;;9.75;7.90;;;18.10;54.80;;;;;;5066849;28;20497;-71
2022/05/31 12:50:07;;;;;;;15.65;8.95;;;18.10;54.80;;;;;;5055448;28;20057;-71
2022/05/31 12:55:27;;;;;;;11.35;8.70;;;18.10;55.50;;;;;;5062423;28;20045;-71
2022/05/31 13:00:51;;;;;;;10.48;8.27;;;18.10;55.30;;;;;;5054338;28;20053;-70
2022/05/31 13:03:34;;;;;;;17.55;10.50;;;18.10;55.40;;;;;;5053925;28;20041;-70
2022/05/31 13:06:07;;;;;;;17.80;9.32;;;18.10;54.20;;;;;;5063811;28;20087;-70
2022/05/31 13:08:48;;;;;;;12.65;8.75;;;18.20;54.30;;;;;;5056719;28;20699;-71
2022/05/31 13:19:41;;;;;;;10.90;9.43;;;18.30;54.30;;;;;;5055973;28;20596;-71
2022/05/31 13:22:12;;;;;;;12.73;9.27;;;18.20;53.70;;;;;;5066195;28;20041;-71
2022/05/31 13:25:13;;;;;;;13.13;9.02;;;18.30;53.10;;;;;;5060769;28;20036;-71
2022/05/31 13:27:39;;;;;;;12.07;8.88;;;18.30;52.10;;;;;;5062194;28;20048;-71
2022/05/31 13:30:15;;;;;;;21.27;8.27;;;18.30;53.70;;;;;;5059754;28;20040;-71
2022/05/31 13:32:41;;;;;;;13.15;9.20;;;18.30;52.60;;;;;;5070715;28;20566;-71
2022/05/31 13:35:12;;;;;;;12.93;9.18;;;18.30;54.40;;;;;;5053309;28;20139;-71
2022/05/31 13:37:51;;;;;;;11.93;8.98;;;18.20;55.10;;;;;;5054496;28;20667;-70
2022/05/31 13:40:23;;;;;;;13.10;9.50;;;18.10;54.40;;;;;;5053108;28;20045;-71
2022/05/31 13:42:50;;;;;;;12.05;10.32;;;18.10;55.00;;;;;;5070705;28;20366;-71
2022/05/31 13:45:22;;;;;;;13.30;9.95;;;18.10;55.10;;;;;;5064355;28;20397;-71
2022/05/31 13:48:17;;;;;;;12.57;9.07;;;18.00;54.50;;;;;;5070218;28;20040;-71